SHT17L EGPE-EGLL
Flight info
| Callsign | SHT17L |
|---|---|
| Flight time | 1h 11m |
| Altitude | 36000 |
| Route | DCT GUSSI DCT NESDI DCT ERSON DCT ELBUS DCT LAKEY/N0445F370 DCT NUGRA NUGRA2H |
| Aircraft | A319/M-SDE2E3FGHIJ1RWXY/S |
Departure
| Time | 2026-05-05 20:36 |
|---|---|
| Airport | Inverness Airport (EGPE) |
Arrival
| Time | 2026-05-05 21:47 |
|---|---|
| Airport | London Heathrow Airport (EGLL) |
| Time | Latitude | Longitude | Altitude | Speed | Heading |
|---|---|---|---|---|---|
| 2026-05-05 19:53 | 57.53923 | -4.06255 | 47 ft | 0 kts | 274° |
| 2026-05-05 20:31 | 57.53923 | -4.06243 | 47 ft | 4 kts | 271° |
| 2026-05-05 20:31 | 57.53926 | -4.06196 | 45 ft | 4 kts | 241° |
| 2026-05-05 20:31 | 57.53938 | -4.06170 | 43 ft | 4 kts | 197° |
| 2026-05-05 20:31 | 57.53951 | -4.06165 | 45 ft | 0 kts | 184° |
| 2026-05-05 20:34 | 57.53935 | -4.06167 | 43 ft | 4 kts | 184° |
| 2026-05-05 20:34 | 57.53888 | -4.06173 | 43 ft | 9 kts | 184° |
| 2026-05-05 20:35 | 57.53807 | -4.06176 | -1 ft | 13 kts | 171° |
| 2026-05-05 20:35 | 57.53749 | -4.06094 | 40 ft | 20 kts | 129° |
| 2026-05-05 20:35 | 57.53787 | -4.05762 | 39 ft | 25 kts | 49° |
| 2026-05-05 20:35 | 57.54064 | -4.05181 | 35 ft | 99 kts | 49° |
| 2026-05-05 20:36 | 57.54687 | -4.03822 | 71 ft | 162 kts | 51° |
| 2026-05-05 20:36 | 57.55373 | -4.02258 | 751 ft | 162 kts | 52° |
| 2026-05-05 20:36 | 57.56151 | -4.00607 | 1752 ft | 155 kts | 47° |
| 2026-05-05 20:36 | 57.56653 | -3.99296 | 2220 ft | 162 kts | 70° |
| 2026-05-05 20:37 | 57.56531 | -3.97137 | 2477 ft | 190 kts | 116° |
| 2026-05-05 20:37 | 57.55418 | -3.95431 | 2723 ft | 225 kts | 163° |
| 2026-05-05 20:37 | 57.53801 | -3.95354 | 3180 ft | 252 kts | 188° |
| 2026-05-05 20:37 | 57.51961 | -3.96170 | 3972 ft | 266 kts | 197° |
| 2026-05-05 20:38 | 57.50196 | -3.97222 | 5029 ft | 269 kts | 199° |
| 2026-05-05 20:38 | 57.48412 | -3.98323 | 6039 ft | 272 kts | 200° |
| 2026-05-05 20:38 | 57.46613 | -3.99399 | 7014 ft | 275 kts | 199° |
| 2026-05-05 20:38 | 57.44793 | -4.00434 | 7964 ft | 278 kts | 199° |
| 2026-05-05 20:39 | 57.42916 | -4.01453 | 8899 ft | 282 kts | 199° |
| 2026-05-05 20:39 | 57.40916 | -4.02503 | 9894 ft | 287 kts | 199° |
| 2026-05-05 20:39 | 57.38969 | -4.03506 | 10522 ft | 301 kts | 199° |
| 2026-05-05 20:39 | 57.36860 | -4.04588 | 10820 ft | 324 kts | 199° |
| 2026-05-05 20:40 | 57.34630 | -4.05720 | 11128 ft | 340 kts | 197° |
| 2026-05-05 20:40 | 57.32251 | -4.06912 | 11887 ft | 345 kts | 198° |
| 2026-05-05 20:40 | 57.29896 | -4.08089 | 12692 ft | 348 kts | 199° |
| 2026-05-05 20:40 | 57.27504 | -4.09291 | 13453 ft | 353 kts | 199° |
| 2026-05-05 20:41 | 57.25198 | -4.10456 | 14036 ft | 359 kts | 195° |
| 2026-05-05 20:41 | 57.22766 | -4.11679 | 14626 ft | 362 kts | 199° |
| 2026-05-05 20:41 | 57.20577 | -4.12597 | 15273 ft | 366 kts | 192° |
| 2026-05-05 20:41 | 57.18346 | -4.13146 | 15893 ft | 369 kts | 191° |
| 2026-05-05 20:42 | 57.15758 | -4.13779 | 16433 ft | 373 kts | 191° |
| 2026-05-05 20:42 | 57.13358 | -4.14370 | 16990 ft | 376 kts | 192° |
| 2026-05-05 20:42 | 57.11530 | -4.14646 | 17475 ft | 382 kts | 180° |
| 2026-05-05 20:42 | 57.08873 | -4.13974 | 18147 ft | 386 kts | 177° |
| 2026-05-05 20:43 | 57.07103 | -4.13896 | 17721 ft | 383 kts | 185° |
| 2026-05-05 20:43 | 57.04449 | -4.14662 | 18844 ft | 388 kts | 198° |
| 2026-05-05 20:43 | 57.01863 | -4.15952 | 19631 ft | 383 kts | 200° |
| 2026-05-05 20:43 | 56.99296 | -4.17263 | 20316 ft | 384 kts | 199° |
| 2026-05-05 20:44 | 56.96688 | -4.18406 | 20155 ft | 386 kts | 193° |
| 2026-05-05 20:44 | 56.94249 | -4.19265 | 21298 ft | 392 kts | 194° |
| 2026-05-05 20:44 | 56.91602 | -4.19998 | 21932 ft | 394 kts | 192° |
| 2026-05-05 20:44 | 56.88873 | -4.20629 | 22530 ft | 397 kts | 191° |
| 2026-05-05 20:45 | 56.83352 | -4.21798 | 23652 ft | 402 kts | 191° |
| 2026-05-05 20:45 | 56.80561 | -4.22417 | 24104 ft | 404 kts | 192° |
| 2026-05-05 20:45 | 56.77770 | -4.23068 | 24543 ft | 406 kts | 192° |
| 2026-05-05 20:46 | 56.74882 | -4.23758 | 24968 ft | 408 kts | 192° |
| 2026-05-05 20:46 | 56.72069 | -4.24441 | 25391 ft | 410 kts | 192° |
| 2026-05-05 20:46 | 56.69155 | -4.25152 | 25833 ft | 412 kts | 192° |
| 2026-05-05 20:46 | 56.66310 | -4.25848 | 26277 ft | 414 kts | 192° |
| 2026-05-05 20:47 | 56.63448 | -4.26545 | 26709 ft | 416 kts | 192° |
| 2026-05-05 20:47 | 56.60529 | -4.27250 | 27161 ft | 418 kts | 192° |
| 2026-05-05 20:47 | 56.57634 | -4.27948 | 27583 ft | 420 kts | 192° |
| 2026-05-05 20:47 | 56.54729 | -4.28643 | 28001 ft | 422 kts | 192° |
| 2026-05-05 20:48 | 56.51826 | -4.29335 | 28416 ft | 424 kts | 192° |
| 2026-05-05 20:48 | 56.48877 | -4.30037 | 28794 ft | 427 kts | 191° |
| 2026-05-05 20:48 | 56.45890 | -4.30350 | 29166 ft | 434 kts | 182° |
| 2026-05-05 20:48 | 56.42853 | -4.29847 | 29547 ft | 440 kts | 176° |
| 2026-05-05 20:49 | 56.39814 | -4.29109 | 29923 ft | 442 kts | 176° |
| 2026-05-05 20:49 | 56.36635 | -4.28331 | 30296 ft | 444 kts | 176° |
| 2026-05-05 20:49 | 56.33521 | -4.27565 | 30607 ft | 446 kts | 176° |
| 2026-05-05 20:49 | 56.30437 | -4.26811 | 30927 ft | 448 kts | 176° |
| 2026-05-05 20:50 | 56.27309 | -4.26051 | 31231 ft | 449 kts | 176° |
| 2026-05-05 20:50 | 56.24254 | -4.25312 | 31638 ft | 448 kts | 176° |
| 2026-05-05 20:50 | 56.21361 | -4.24612 | 32004 ft | 447 kts | 176° |
| 2026-05-05 20:50 | 56.18282 | -4.23869 | 32434 ft | 446 kts | 176° |
| 2026-05-05 20:51 | 56.15224 | -4.23136 | 32765 ft | 444 kts | 172° |
| 2026-05-05 20:51 | 56.13510 | -4.22464 | 32800 ft | 451 kts | 163° |
| 2026-05-05 20:51 | 56.09348 | -4.20025 | 33157 ft | 448 kts | 174° |
| 2026-05-05 20:51 | 56.06275 | -4.19388 | 33654 ft | 441 kts | 181° |
| 2026-05-05 20:52 | 56.03147 | -4.19208 | 34039 ft | 438 kts | 182° |
| 2026-05-05 20:52 | 56.00140 | -4.19095 | 34310 ft | 439 kts | 182° |
| 2026-05-05 20:52 | 55.97077 | -4.18827 | 34686 ft | 439 kts | 180° |
| 2026-05-05 20:52 | 55.94029 | -4.18342 | 35008 ft | 441 kts | 178° |
| 2026-05-05 20:53 | 55.90976 | -4.17666 | 35303 ft | 442 kts | 176° |
| 2026-05-05 20:53 | 55.87927 | -4.16875 | 35585 ft | 443 kts | 175° |
| 2026-05-05 20:53 | 55.84877 | -4.16045 | 35865 ft | 444 kts | 175° |
| 2026-05-05 20:53 | 55.81823 | -4.15230 | 36075 ft | 445 kts | 175° |
| 2026-05-05 20:54 | 55.75696 | -4.13714 | 36128 ft | 443 kts | 176° |
| 2026-05-05 20:54 | 55.69588 | -4.12305 | 36113 ft | 443 kts | 176° |
| 2026-05-05 20:55 | 55.64499 | -4.11132 | 36114 ft | 443 kts | 176° |
| 2026-05-05 20:55 | 55.58379 | -4.09709 | 36105 ft | 443 kts | 176° |
| 2026-05-05 20:56 | 55.52290 | -4.08275 | 36099 ft | 444 kts | 174° |
| 2026-05-05 20:56 | 55.46351 | -4.04828 | 36096 ft | 452 kts | 156° |
| 2026-05-05 20:57 | 55.40739 | -3.99753 | 36082 ft | 452 kts | 156° |
| 2026-05-05 20:57 | 55.35140 | -3.94719 | 36084 ft | 452 kts | 156° |
| 2026-05-05 20:58 | 55.29535 | -3.89703 | 36086 ft | 452 kts | 156° |
| 2026-05-05 20:58 | 55.23905 | -3.84677 | 36085 ft | 452 kts | 156° |
| 2026-05-05 20:59 | 55.18320 | -3.79719 | 36071 ft | 452 kts | 156° |
| 2026-05-05 20:59 | 55.12730 | -3.74779 | 36076 ft | 452 kts | 156° |
| 2026-05-05 21:00 | 55.07234 | -3.69914 | 36078 ft | 452 kts | 156° |
| 2026-05-05 21:00 | 55.01441 | -3.64808 | 36083 ft | 452 kts | 156° |
| 2026-05-05 21:01 | 54.95884 | -3.59942 | 36084 ft | 452 kts | 156° |
| 2026-05-05 21:01 | 54.89975 | -3.54777 | 36062 ft | 453 kts | 156° |
| 2026-05-05 21:02 | 54.87230 | -3.52386 | 34945 ft | 452 kts | 154° |
| 2026-05-05 21:02 | 54.84461 | -3.49977 | 36088 ft | 452 kts | 156° |
| 2026-05-05 21:02 | 54.83532 | -3.49170 | 36069 ft | 452 kts | 156° |
| 2026-05-05 21:05 | 54.81517 | -3.47426 | 35957 ft | 452 kts | 156° |
| 2026-05-05 21:05 | 54.78713 | -3.44993 | 36079 ft | 452 kts | 156° |
| 2026-05-05 21:06 | 54.75875 | -3.42532 | 34981 ft | 453 kts | 154° |
| 2026-05-05 21:06 | 54.73036 | -3.40070 | 36077 ft | 453 kts | 156° |
| 2026-05-05 21:06 | 54.67418 | -3.35213 | 36087 ft | 453 kts | 156° |
| 2026-05-05 21:07 | 54.61663 | -3.30252 | 36080 ft | 453 kts | 156° |
| 2026-05-05 21:07 | 54.56054 | -3.25442 | 36075 ft | 452 kts | 156° |
| 2026-05-05 21:08 | 54.50421 | -3.20630 | 36073 ft | 452 kts | 156° |
| 2026-05-05 21:08 | 54.44794 | -3.15831 | 36064 ft | 451 kts | 156° |
| 2026-05-05 21:09 | 54.39132 | -3.11004 | 36076 ft | 451 kts | 156° |
| 2026-05-05 21:09 | 54.33517 | -3.06247 | 36079 ft | 450 kts | 156° |
| 2026-05-05 21:10 | 54.27899 | -3.01508 | 36077 ft | 450 kts | 156° |
| 2026-05-05 21:10 | 54.22264 | -2.97170 | 36076 ft | 447 kts | 164° |
| 2026-05-05 21:11 | 54.17204 | -2.94265 | 36063 ft | 447 kts | 164° |
| 2026-05-05 21:11 | 54.11196 | -2.90818 | 36067 ft | 447 kts | 164° |
| 2026-05-05 21:12 | 54.05358 | -2.87471 | 36069 ft | 447 kts | 164° |
| 2026-05-05 21:12 | 53.99307 | -2.84009 | 36067 ft | 447 kts | 164° |
| 2026-05-05 21:13 | 53.93336 | -2.80612 | 36054 ft | 446 kts | 164° |
| 2026-05-05 21:13 | 53.87048 | -2.77044 | 36058 ft | 446 kts | 164° |
| 2026-05-05 21:14 | 53.80990 | -2.73618 | 36058 ft | 446 kts | 164° |
| 2026-05-05 21:14 | 53.76204 | -2.70915 | 36060 ft | 446 kts | 164° |
| 2026-05-05 21:15 | 53.70189 | -2.67526 | 36049 ft | 447 kts | 164° |
| 2026-05-05 21:15 | 53.64273 | -2.64211 | 36066 ft | 447 kts | 164° |
| 2026-05-05 21:16 | 53.57884 | -2.60638 | 36066 ft | 447 kts | 164° |
| 2026-05-05 21:16 | 53.51806 | -2.57257 | 36058 ft | 447 kts | 164° |
| 2026-05-05 21:17 | 53.46148 | -2.54116 | 36065 ft | 447 kts | 164° |
| 2026-05-05 21:17 | 53.40311 | -2.50877 | 36056 ft | 447 kts | 164° |
| 2026-05-05 21:18 | 53.34123 | -2.47449 | 36051 ft | 446 kts | 164° |
| 2026-05-05 21:18 | 53.28427 | -2.44317 | 36052 ft | 446 kts | 164° |
| 2026-05-05 21:19 | 53.26471 | -2.43242 | 34998 ft | 447 kts | 162° |
| 2026-05-05 21:19 | 53.23215 | -2.41446 | 36107 ft | 447 kts | 164° |
| 2026-05-05 21:19 | 53.17228 | -2.38160 | 36074 ft | 447 kts | 164° |
| 2026-05-05 21:20 | 53.14081 | -2.36440 | 35030 ft | 447 kts | 162° |
| 2026-05-05 21:20 | 53.11173 | -2.34852 | 36065 ft | 448 kts | 164° |
| 2026-05-05 21:20 | 53.08016 | -2.33134 | 35803 ft | 447 kts | 164° |
| 2026-05-05 21:20 | 53.05187 | -2.31589 | 35567 ft | 447 kts | 163° |
| 2026-05-05 21:21 | 53.02045 | -2.29322 | 35286 ft | 450 kts | 153° |
| 2026-05-05 21:21 | 52.99550 | -2.26781 | 35048 ft | 451 kts | 149° |
| 2026-05-05 21:21 | 52.96897 | -2.23972 | 34796 ft | 451 kts | 149° |
| 2026-05-05 21:21 | 52.94229 | -2.21166 | 34561 ft | 451 kts | 149° |
| 2026-05-05 21:22 | 52.91553 | -2.18371 | 34323 ft | 451 kts | 149° |
| 2026-05-05 21:22 | 52.88904 | -2.15615 | 34085 ft | 451 kts | 149° |
| 2026-05-05 21:22 | 52.86242 | -2.12854 | 33820 ft | 452 kts | 149° |
| 2026-05-05 21:22 | 52.83577 | -2.10087 | 33542 ft | 452 kts | 149° |
| 2026-05-05 21:23 | 52.80918 | -2.07320 | 32857 ft | 454 kts | 149° |
| 2026-05-05 21:23 | 52.78234 | -2.04528 | 31865 ft | 461 kts | 149° |
| 2026-05-05 21:23 | 52.75507 | -2.01695 | 31342 ft | 456 kts | 149° |
| 2026-05-05 21:23 | 52.72844 | -1.98931 | 30758 ft | 452 kts | 149° |
| 2026-05-05 21:24 | 52.70171 | -1.96163 | 30185 ft | 448 kts | 149° |
| 2026-05-05 21:24 | 52.67510 | -1.93409 | 29540 ft | 444 kts | 149° |
| 2026-05-05 21:24 | 52.64912 | -1.90723 | 28976 ft | 439 kts | 149° |
| 2026-05-05 21:24 | 52.62338 | -1.88066 | 28402 ft | 433 kts | 149° |
| 2026-05-05 21:25 | 52.59807 | -1.85456 | 27856 ft | 429 kts | 150° |
| 2026-05-05 21:25 | 52.57126 | -1.82700 | 27263 ft | 424 kts | 150° |
| 2026-05-05 21:25 | 52.54793 | -1.80306 | 26768 ft | 420 kts | 150° |
| 2026-05-05 21:25 | 52.52303 | -1.77753 | 26224 ft | 415 kts | 150° |
| 2026-05-05 21:26 | 52.49882 | -1.75275 | 25705 ft | 411 kts | 150° |
| 2026-05-05 21:26 | 52.47481 | -1.72820 | 25211 ft | 407 kts | 150° |
| 2026-05-05 21:26 | 52.45085 | -1.70370 | 24718 ft | 404 kts | 150° |
| 2026-05-05 21:26 | 52.42623 | -1.67862 | 24228 ft | 400 kts | 150° |
| 2026-05-05 21:27 | 52.40360 | -1.65562 | 23779 ft | 398 kts | 150° |
| 2026-05-05 21:27 | 52.37989 | -1.63155 | 23295 ft | 395 kts | 150° |
| 2026-05-05 21:27 | 52.35677 | -1.60813 | 22840 ft | 390 kts | 150° |
| 2026-05-05 21:27 | 52.33370 | -1.58479 | 22391 ft | 386 kts | 150° |
| 2026-05-05 21:28 | 52.31109 | -1.56192 | 21948 ft | 382 kts | 150° |
| 2026-05-05 21:28 | 52.28837 | -1.53892 | 21494 ft | 378 kts | 150° |
| 2026-05-05 21:28 | 52.26761 | -1.51789 | 21061 ft | 374 kts | 150° |
| 2026-05-05 21:28 | 52.24495 | -1.49499 | 20611 ft | 370 kts | 150° |
| 2026-05-05 21:29 | 52.22331 | -1.47307 | 19809 ft | 368 kts | 147° |
| 2026-05-05 21:29 | 52.20642 | -1.45217 | 20225 ft | 377 kts | 141° |
| 2026-05-05 21:29 | 52.18399 | -1.42087 | 20040 ft | 377 kts | 141° |
| 2026-05-05 21:29 | 52.16765 | -1.39801 | 20026 ft | 378 kts | 141° |
| 2026-05-05 21:30 | 52.14604 | -1.36776 | 19431 ft | 376 kts | 140° |
| 2026-05-05 21:30 | 52.12617 | -1.33999 | 18745 ft | 382 kts | 141° |
| 2026-05-05 21:30 | 52.10728 | -1.31367 | 17811 ft | 383 kts | 141° |
| 2026-05-05 21:30 | 52.08531 | -1.28310 | 17470 ft | 368 kts | 141° |
| 2026-05-05 21:31 | 52.06419 | -1.25379 | 16697 ft | 368 kts | 140° |
| 2026-05-05 21:31 | 52.04626 | -1.22896 | 16740 ft | 370 kts | 141° |
| 2026-05-05 21:31 | 52.03186 | -1.20904 | 16419 ft | 365 kts | 141° |
| 2026-05-05 21:31 | 52.01147 | -1.18087 | 16020 ft | 359 kts | 141° |
| 2026-05-05 21:32 | 51.99052 | -1.15193 | 15635 ft | 358 kts | 140° |
| 2026-05-05 21:32 | 51.97416 | -1.12935 | 15306 ft | 357 kts | 141° |
| 2026-05-05 21:32 | 51.95007 | -1.09611 | 14757 ft | 357 kts | 141° |
| 2026-05-05 21:32 | 51.93104 | -1.06986 | 13972 ft | 357 kts | 140° |
| 2026-05-05 21:33 | 51.91279 | -1.04466 | 13467 ft | 334 kts | 140° |
| 2026-05-05 21:33 | 51.90245 | -1.03040 | 13779 ft | 321 kts | 140° |
| 2026-05-05 21:33 | 51.88160 | -1.00174 | 13604 ft | 297 kts | 141° |
| 2026-05-05 21:33 | 51.86754 | -0.98246 | 13323 ft | 287 kts | 141° |
| 2026-05-05 21:34 | 51.85196 | -0.95630 | 12387 ft | 283 kts | 124° |
| 2026-05-05 21:34 | 51.84569 | -0.93887 | 12366 ft | 279 kts | 115° |
| 2026-05-05 21:34 | 51.83296 | -0.89642 | 11581 ft | 275 kts | 115° |
| 2026-05-05 21:34 | 51.83098 | -0.88992 | 11523 ft | 273 kts | 115° |
| 2026-05-05 21:35 | 51.81853 | -0.84941 | 10857 ft | 259 kts | 116° |
| 2026-05-05 21:35 | 51.81094 | -0.82474 | 10898 ft | 247 kts | 115° |
| 2026-05-05 21:35 | 51.80813 | -0.81561 | 10728 ft | 248 kts | 115° |
| 2026-05-05 21:35 | 51.79713 | -0.77978 | 10182 ft | 250 kts | 115° |
| 2026-05-05 21:36 | 51.78219 | -0.73111 | 9472 ft | 251 kts | 115° |
| 2026-05-05 21:36 | 51.77036 | -0.69275 | 8945 ft | 249 kts | 115° |
| 2026-05-05 21:36 | 51.76392 | -0.67199 | 8659 ft | 247 kts | 115° |
| 2026-05-05 21:37 | 51.75836 | -0.65406 | 8173 ft | 246 kts | 115° |
| 2026-05-05 21:37 | 51.74837 | -0.62180 | 8064 ft | 238 kts | 115° |
| 2026-05-05 21:37 | 51.74067 | -0.60436 | 7900 ft | 232 kts | 135° |
| 2026-05-05 21:37 | 51.72230 | -0.58903 | 7756 ft | 219 kts | 171° |
| 2026-05-05 21:38 | 51.70743 | -0.59013 | 7580 ft | 221 kts | 198° |
| 2026-05-05 21:38 | 51.69355 | -0.60156 | 7474 ft | 227 kts | 216° |
| 2026-05-05 21:38 | 51.68050 | -0.61559 | 7345 ft | 230 kts | 215° |
| 2026-05-05 21:38 | 51.66741 | -0.62959 | 7230 ft | 246 kts | 215° |
| 2026-05-05 21:39 | 51.65411 | -0.64374 | 7024 ft | 249 kts | 214° |
| 2026-05-05 21:39 | 51.63968 | -0.65901 | 6721 ft | 248 kts | 214° |
| 2026-05-05 21:39 | 51.62439 | -0.67517 | 6381 ft | 246 kts | 214° |
| 2026-05-05 21:39 | 51.61182 | -0.68847 | 6036 ft | 246 kts | 214° |
| 2026-05-05 21:40 | 51.59567 | -0.70554 | 5741 ft | 239 kts | 214° |
| 2026-05-05 21:40 | 51.58308 | -0.71882 | 5480 ft | 236 kts | 214° |
| 2026-05-05 21:40 | 51.56952 | -0.73312 | 5167 ft | 229 kts | 214° |
| 2026-05-05 21:40 | 51.55694 | -0.74638 | 4902 ft | 220 kts | 213° |
| 2026-05-05 21:41 | 51.54388 | -0.76019 | 4612 ft | 207 kts | 213° |
| 2026-05-05 21:41 | 51.53263 | -0.77206 | 4345 ft | 200 kts | 213° |
| 2026-05-05 21:41 | 51.52065 | -0.78470 | 4071 ft | 199 kts | 213° |
| 2026-05-05 21:41 | 51.50937 | -0.79596 | 3837 ft | 198 kts | 205° |
| 2026-05-05 21:42 | 51.49581 | -0.79862 | 3747 ft | 194 kts | 168° |
| 2026-05-05 21:42 | 51.48408 | -0.78953 | 3704 ft | 190 kts | 135° |
| 2026-05-05 21:42 | 51.47811 | -0.77653 | 3618 ft | 186 kts | 111° |
| 2026-05-05 21:42 | 51.47598 | -0.75801 | 3453 ft | 182 kts | 88° |
| 2026-05-05 21:43 | 51.47620 | -0.72983 | 3046 ft | 189 kts | 89° |
| 2026-05-05 21:43 | 51.47625 | -0.72303 | 3059 ft | 190 kts | 88° |
| 2026-05-05 21:43 | 51.47645 | -0.69187 | 2674 ft | 180 kts | 88° |
| 2026-05-05 21:43 | 51.47657 | -0.67141 | 2425 ft | 179 kts | 88° |
| 2026-05-05 21:44 | 51.47663 | -0.66078 | 2295 ft | 178 kts | 88° |
| 2026-05-05 21:44 | 51.47680 | -0.62886 | 1884 ft | 184 kts | 89° |
| 2026-05-05 21:44 | 51.47686 | -0.61760 | 1757 ft | 180 kts | 89° |
| 2026-05-05 21:44 | 51.47699 | -0.59299 | 1477 ft | 176 kts | 89° |
| 2026-05-05 21:45 | 51.47709 | -0.57203 | 1170 ft | 154 kts | 90° |
| 2026-05-05 21:45 | 51.47717 | -0.55554 | 989 ft | 135 kts | 89° |
| 2026-05-05 21:45 | 51.47719 | -0.55021 | 925 ft | 132 kts | 89° |
| 2026-05-05 21:45 | 51.47725 | -0.53793 | 772 ft | 127 kts | 88° |
| 2026-05-05 21:46 | 51.47727 | -0.53297 | 706 ft | 126 kts | 88° |
| 2026-05-05 21:46 | 51.47744 | -0.49741 | 299 ft | 125 kts | 88° |
| 2026-05-05 21:46 | 51.47745 | -0.49359 | 248 ft | 124 kts | 87° |
| 2026-05-05 21:47 | 51.47759 | -0.45992 | 85 ft | 102 kts | 92° |
| 2026-05-05 21:47 | 51.47711 | -0.45484 | 87 ft | 25 kts | 150° |
| 2026-05-05 21:47 | 51.47672 | -0.45478 | 86 ft | 10 kts | 182° |
| 2026-05-05 21:47 | 51.47642 | -0.45484 | 86 ft | 15 kts | 197° |
| 2026-05-05 21:48 | 51.47593 | -0.45677 | 86 ft | 19 kts | 271° |
| 2026-05-05 21:48 | 51.47594 | -0.45821 | 87 ft | 21 kts | 271° |
| 2026-05-05 21:48 | 51.47596 | -0.46083 | 88 ft | 24 kts | 270° |
| 2026-05-05 21:48 | 51.47593 | -0.46493 | 86 ft | 27 kts | 269° |
| 2026-05-05 21:49 | 51.47591 | -0.46728 | 106 ft | 26 kts | 269° |
| 2026-05-05 21:49 | 51.47587 | -0.46864 | 86 ft | 9 kts | 265° |
| 2026-05-05 21:49 | 51.47583 | -0.46927 | 87 ft | 11 kts | 265° |
| 2026-05-05 21:49 | 51.47582 | -0.47014 | 86 ft | 12 kts | 271° |
| 2026-05-05 21:50 | 51.47582 | -0.47284 | 88 ft | 16 kts | 269° |
| 2026-05-05 21:50 | 51.47581 | -0.47421 | 88 ft | 17 kts | 270° |
| 2026-05-05 21:50 | 51.47581 | -0.47649 | 88 ft | 18 kts | 271° |
| 2026-05-05 21:50 | 51.47581 | -0.47772 | 88 ft | 17 kts | 268° |
| 2026-05-05 21:51 | 51.47580 | -0.48012 | 86 ft | 15 kts | 271° |
| 2026-05-05 21:51 | 51.47581 | -0.48184 | 91 ft | 14 kts | 270° |
| 2026-05-05 21:51 | 51.47580 | -0.48259 | 89 ft | 14 kts | 269° |
| 2026-05-05 21:51 | 51.47548 | -0.48466 | 86 ft | 11 kts | 207° |
| 2026-05-05 21:52 | 51.47487 | -0.48639 | 87 ft | 9 kts | 270° |
| 2026-05-05 21:52 | 51.47487 | -0.48712 | 87 ft | 9 kts | 269° |
| 2026-05-05 21:52 | 51.47487 | -0.48832 | 88 ft | 8 kts | 272° |
| 2026-05-05 21:53 | 51.47495 | -0.48913 | 86 ft | 7 kts | 274° |
| 2026-05-05 21:53 | 51.47491 | -0.48936 | 90 ft | 6 kts | 246° |
| 2026-05-05 21:53 | 51.47461 | -0.48953 | 87 ft | 0 kts | 183° |
| 2026-05-05 21:54 | 51.47455 | -0.48953 | 87 ft | 1 kts | 183° |
| 2026-05-05 21:54 | 51.47453 | -0.48954 | 87 ft | 0 kts | 182° |
| 2026-05-05 21:55 | 51.47443 | -0.48954 | 86 ft | 2 kts | 181° |
| 2026-05-05 21:55 | 51.47431 | -0.48953 | 86 ft | 1 kts | 179° |
| 2026-05-05 21:55 | 51.47423 | -0.48953 | 86 ft | 1 kts | 179° |
| 2026-05-05 21:55 | 51.47414 | -0.48953 | 86 ft | 1 kts | 180° |
| 2026-05-05 21:56 | 51.47411 | -0.48953 | 86 ft | 0 kts | 180° |